Time,TemperatureF,DewpointF,PressureIn,WindDirection,WindDirectionDegrees,WindSpeedMPH,WindSpeedGustMPH,Humidity,HourlyPrecipIn,Conditions,Clouds,dailyrainin,SoftwareType,DateUTC
2013-03-22 00:13:00,26.1,15.0,30.06,West,276,0.0,0.0,64,0.00,,,0.00,weatherlink.com 1.10,2013-03-22 04:13:00,
2013-03-22 00:28:00,26.0,16.0,30.06,SW,224,0.0,1.0,65,0.00,,,0.00,weatherlink.com 1.10,2013-03-22 04:28:00,
2013-03-22 00:43:00,25.8,16.0,30.06,SSW,193,1.0,1.0,67,0.00,,,0.00,weatherlink.com 1.10,2013-03-22 04:43:00,
2013-03-22 00:58:00,25.5,17.0,30.06,SW,222,1.0,1.0,70,0.00,,,0.00,weatherlink.com 1.10,2013-03-22 04:58:00,
2013-03-22 01:13:00,25.4,18.0,30.06,SSW,201,1.0,3.0,72,0.00,,,0.00,weatherlink.com 1.10,2013-03-22 05:13:00,
2013-03-22 01:28:00,24.7,18.0,30.06,SSW,201,0.0,1.0,76,0.00,,,0.00,weatherlink.com 1.10,2013-03-22 05:28:00,
2013-03-22 01:43:00,24.3,18.0,30.06,SSW,201,0.0,1.0,76,0.00,,,0.00,weatherlink.com 1.10,2013-03-22 05:43:00,
2013-03-22 01:58:00,24.1,18.0,30.06,SSW,201,0.0,1.0,76,0.00,,,0.00,weatherlink.com 1.10,2013-03-22 05:58:00,
2013-03-22 02:14:00,24.2,17.0,30.06,SSW,201,0.0,1.0,73,0.00,,,0.00,weatherlink.com 1.10,2013-03-22 06:14:00,
2013-03-22 02:29:00,23.8,18.0,30.06,SSW,203,0.0,1.0,77,0.00,,,0.00,weatherlink.com 1.10,2013-03-22 06:29:00,
2013-03-22 02:44:00,23.3,18.0,30.06,SSW,205,0.0,1.0,81,0.00,,,0.00,weatherlink.com 1.10,2013-03-22 06:44:00,
2013-03-22 02:59:00,23.3,18.0,30.06,SSW,212,0.0,1.0,81,0.00,,,0.00,weatherlink.com 1.10,2013-03-22 06:59:00,
2013-03-22 03:14:00,23.0,19.0,30.06,SSW,212,0.0,0.0,83,0.00,,,0.00,weatherlink.com 1.10,2013-03-22 07:14:00,
2013-03-22 03:29:00,22.9,19.0,30.06,SSW,212,0.0,1.0,84,0.00,,,0.00,weatherlink.com 1.10,2013-03-22 07:29:00,
2013-03-22 03:44:00,22.6,19.0,30.06,SW,218,0.0,1.0,84,0.00,,,0.00,weatherlink.com 1.10,2013-03-22 07:44:00,
2013-03-22 03:59:00,22.5,19.0,30.06,SW,224,0.0,1.0,85,0.00,,,0.00,weatherlink.com 1.10,2013-03-22 07:59:00,
2013-03-22 04:14:00,22.3,19.0,30.05,SW,225,0.0,1.0,86,0.00,,,0.00,weatherlink.com 1.10,2013-03-22 08:14:00,
2013-03-22 04:29:00,21.8,18.0,30.06,SW,224,0.0,0.0,86,0.00,,,0.00,weatherlink.com 1.10,2013-03-22 08:29:00,
2013-03-22 04:44:00,21.9,18.0,30.06,SW,224,0.0,1.0,86,0.00,,,0.00,weatherlink.com 1.10,2013-03-22 08:44:00,
2013-03-22 04:59:00,21.6,18.0,30.06,SW,224,0.0,1.0,86,0.00,,,0.00,weatherlink.com 1.10,2013-03-22 08:59:00,
2013-03-22 05:14:00,21.5,18.0,30.06,SW,221,0.0,1.0,87,0.00,,,0.00,weatherlink.com 1.10,2013-03-22 09:14:00,
2013-03-22 05:29:00,21.8,17.0,30.06,SW,222,0.0,0.0,82,0.00,,,0.00,weatherlink.com 1.10,2013-03-22 09:29:00,
2013-03-22 05:44:00,21.7,18.0,30.06,SW,224,0.0,1.0,84,0.00,,,0.00,weatherlink.com 1.10,2013-03-22 09:44:00,
2013-03-22 05:59:00,21.5,17.0,30.07,SW,224,0.0,1.0,84,0.00,,,0.00,weatherlink.com 1.10,2013-03-22 09:59:00,
2013-03-22 06:14:00,21.3,18.0,30.07,SW,224,0.0,0.0,86,0.00,,,0.00,weatherlink.com 1.10,2013-03-22 10:14:00,
2013-03-22 06:29:00,20.9,18.0,30.07,SW,224,0.0,0.0,87,0.00,,,0.00,weatherlink.com 1.10,2013-03-22 10:29:00,
2013-03-22 06:44:00,20.7,18.0,30.08,SW,231,0.0,1.0,89,0.00,,,0.00,weatherlink.com 1.10,2013-03-22 10:44:00,
2013-03-22 06:59:00,20.6,18.0,30.08,SW,231,0.0,1.0,90,0.00,,,0.00,weatherlink.com 1.10,2013-03-22 10:59:00,
2013-03-22 07:14:00,20.5,18.0,30.08,SW,219,0.0,1.0,91,0.00,,,0.00,weatherlink.com 1.10,2013-03-22 11:14:00,
2013-03-22 07:29:00,20.3,18.0,30.09,SW,214,0.0,1.0,91,0.00,,,0.00,weatherlink.com 1.10,2013-03-22 11:29:00,
2013-03-22 07:44:00,20.3,18.0,30.09,SW,218,0.0,0.0,92,0.00,,,0.00,weatherlink.com 1.10,2013-03-22 11:44:00,
2013-03-22 07:59:00,20.7,19.0,30.10,SW,218,0.0,0.0,91,0.00,,,0.00,weatherlink.com 1.10,2013-03-22 11:59:00,
2013-03-22 08:14:00,21.7,19.0,30.10,SW,218,0.0,0.0,89,0.00,,,0.00,weatherlink.com 1.10,2013-03-22 12:14:00,
2013-03-22 08:29:00,22.1,20.0,30.11,SW,218,0.0,0.0,90,0.00,,,0.00,weatherlink.com 1.10,2013-03-22 12:29:00,
2013-03-22 08:44:00,22.9,20.0,30.11,SW,218,0.0,1.0,88,0.00,,,0.00,weatherlink.com 1.10,2013-03-22 12:44:00,
2013-03-22 08:59:00,24.8,21.0,30.11,ESE,111,0.0,1.0,85,0.00,,,0.00,weatherlink.com 1.10,2013-03-22 12:59:00,
2013-03-22 09:15:00,26.6,22.0,30.11,SSE,155,0.0,1.0,82,0.00,,,0.00,weatherlink.com 1.10,2013-03-22 13:15:00,
2013-03-22 09:30:00,26.7,21.0,30.11,WSW,245,0.0,1.0,80,0.00,,,0.00,weatherlink.com 1.10,2013-03-22 13:30:00,
2013-03-22 09:45:00,28.1,18.0,30.11,NNW,342,1.0,2.0,67,0.00,,,0.00,weatherlink.com 1.10,2013-03-22 13:45:00,
2013-03-22 10:00:00,29.7,20.0,30.11,WNW,302,1.0,2.0,68,0.00,,,0.00,weatherlink.com 1.10,2013-03-22 14:00:00,
2013-03-22 10:15:00,30.0,19.0,30.11,West,264,2.0,3.0,63,0.00,,,0.00,weatherlink.com 1.10,2013-03-22 14:15:00,
2013-03-22 10:30:00,31.6,19.0,30.11,West,270,1.0,2.0,60,0.00,,,0.00,weatherlink.com 1.10,2013-03-22 14:30:00,
2013-03-22 10:45:00,32.3,19.0,30.11,WNW,299,0.0,4.0,58,0.00,,,0.00,weatherlink.com 1.10,2013-03-22 14:45:00,
2013-03-22 11:00:00,32.8,18.0,30.10,WSW,244,4.0,5.0,55,0.00,,,0.00,weatherlink.com 1.10,2013-03-22 15:00:00,
2013-03-22 11:15:00,34.8,19.0,30.11,SSE,148,3.0,7.0,53,0.00,,,0.00,weatherlink.com 1.10,2013-03-22 15:15:00,
2013-03-22 11:30:00,35.1,20.0,30.11,SSE,162,0.0,5.0,54,0.00,,,0.00,weatherlink.com 1.10,2013-03-22 15:30:00,
2013-03-22 11:45:00,36.4,18.0,30.11,SW,231,3.0,6.0,48,0.00,,,0.00,weatherlink.com 1.10,2013-03-22 15:45:00,
2013-03-22 12:00:00,36.6,19.0,30.10,SE,141,3.0,7.0,49,0.00,,,0.00,weatherlink.com 1.10,2013-03-22 16:00:00,
2013-03-22 12:15:00,36.8,19.0,30.10,SSE,150,1.0,7.0,49,0.00,,,0.00,weatherlink.com 1.10,2013-03-22 16:15:00,
2013-03-22 12:30:00,36.8,18.0,30.10,ENE,65,4.0,5.0,47,0.00,,,0.00,weatherlink.com 1.10,2013-03-22 16:30:00,
2013-03-22 12:45:00,38.1,19.0,30.09,SE,138,2.0,7.0,46,0.00,,,0.00,weatherlink.com 1.10,2013-03-22 16:45:00,
2013-03-22 13:00:00,40.0,19.0,30.09,ESE,110,0.0,6.0,43,0.00,,,0.00,weatherlink.com 1.10,2013-03-22 17:00:00,
2013-03-22 13:15:00,38.4,18.0,30.08,SW,218,3.0,5.0,44,0.00,,,0.00,weatherlink.com 1.10,2013-03-22 17:15:00,
2013-03-22 13:30:00,39.9,18.0,30.08,West,276,3.0,7.0,41,0.00,,,0.00,weatherlink.com 1.10,2013-03-22 17:30:00,
2013-03-22 13:45:00,40.0,18.0,30.07,SSE,162,1.0,6.0,42,0.00,,,0.00,weatherlink.com 1.10,2013-03-22 17:45:00,
2013-03-22 14:00:00,41.1,19.0,30.07,SE,133,4.0,7.0,42,0.00,,,0.00,weatherlink.com 1.10,2013-03-22 18:00:00,
2013-03-22 14:15:00,42.8,20.0,30.06,ESE,119,3.0,4.0,40,0.00,,,0.00,weatherlink.com 1.10,2013-03-22 18:15:00,
2013-03-22 14:30:00,42.5,18.0,30.05,South,181,4.0,6.0,38,0.00,,,0.00,weatherlink.com 1.10,2013-03-22 18:30:00,
2013-03-22 14:45:00,42.7,19.0,30.05,West,259,1.0,6.0,38,0.00,,,0.00,weatherlink.com 1.10,2013-03-22 18:45:00,
2013-03-22 15:00:00,43.7,18.0,30.04,West,264,1.0,4.0,35,0.00,,,0.00,weatherlink.com 1.10,2013-03-22 19:00:00,
2013-03-22 15:16:00,43.6,17.0,30.04,ESE,108,3.0,8.0,35,0.00,,,0.00,weatherlink.com 1.10,2013-03-22 19:16:00,
2013-03-22 15:31:00,43.3,18.0,30.04,WSW,257,3.0,6.0,36,0.00,,,0.00,weatherlink.com 1.10,2013-03-22 19:31:00,
2013-03-22 15:46:00,43.5,18.0,30.03,SW,236,3.0,8.0,36,0.00,,,0.00,weatherlink.com 1.10,2013-03-22 19:46:00,
2013-03-22 16:01:00,44.6,17.0,30.03,NW,323,1.0,6.0,33,0.00,,,0.00,weatherlink.com 1.10,2013-03-22 20:01:00,
2013-03-22 16:16:00,44.2,18.0,30.02,SW,231,2.0,7.0,35,0.00,,,0.00,weatherlink.com 1.10,2013-03-22 20:16:00,
2013-03-22 16:31:00,44.3,17.0,30.02,NE,50,1.0,5.0,34,0.00,,,0.00,weatherlink.com 1.10,2013-03-22 20:31:00,
2013-03-22 16:46:00,44.0,18.0,30.02,West,280,2.0,5.0,35,0.00,,,0.00,weatherlink.com 1.10,2013-03-22 20:46:00,
2013-03-22 17:01:00,44.8,19.0,30.02,West,270,2.0,4.0,35,0.00,,,0.00,weatherlink.com 1.10,2013-03-22 21:01:00,
2013-03-22 17:16:00,44.7,18.0,30.02,SW,231,2.0,3.0,34,0.00,,,0.00,weatherlink.com 1.10,2013-03-22 21:16:00,
2013-03-22 18:31:00,45.4,18.0,30.02,West,271,1.0,5.0,33,0.00,,,0.00,weatherlink.com 1.10,2013-03-22 22:31:00,
2013-03-22 19:02:00,44.5,17.0,30.02,West,274,1.0,3.0,33,0.00,,,0.00,weatherlink.com 1.10,2013-03-22 23:02:00,
2013-03-22 19:15:00,44.1,17.0,30.02,WSW,257,1.0,2.0,33,0.00,,,0.00,weatherlink.com 1.10,2013-03-22 23:15:00,
2013-03-22 19:30:00,43.6,17.0,30.03,WNW,294,0.0,2.0,34,0.00,,,0.00,weatherlink.com 1.10,2013-03-22 23:30:00,
2013-03-22 19:46:00,42.4,17.0,30.03,NW,320,0.0,1.0,36,0.00,,,0.00,weatherlink.com 1.10,2013-03-22 23:46:00,
2013-03-22 20:00:00,41.5,17.0,30.03,NW,316,0.0,1.0,37,0.00,,,0.00,weatherlink.com 1.10,2013-03-23 00:00:00,
2013-03-22 20:15:00,40.9,16.0,30.03,NW,316,1.0,1.0,37,0.00,,,0.00,weatherlink.com 1.10,2013-03-23 00:15:00,
2013-03-22 20:30:00,40.2,17.0,30.03,NNW,336,0.0,1.0,39,0.00,,,0.00,weatherlink.com 1.10,2013-03-23 00:30:00,
2013-03-22 20:45:00,39.7,16.0,30.04,NW,321,0.0,1.0,39,0.00,,,0.00,weatherlink.com 1.10,2013-03-23 00:45:00,
2013-03-22 21:00:00,39.6,16.0,30.04,NW,320,0.0,1.0,39,0.00,,,0.00,weatherlink.com 1.10,2013-03-23 01:00:00,
2013-03-22 21:16:00,39.6,16.0,30.05,WNW,293,0.0,1.0,39,0.00,,,0.00,weatherlink.com 1.10,2013-03-23 01:16:00,
2013-03-22 21:30:00,39.7,16.0,30.05,WNW,293,0.0,1.0,39,0.00,,,0.00,weatherlink.com 1.10,2013-03-23 01:30:00,
2013-03-22 21:46:00,38.6,16.0,30.05,WNW,292,0.0,0.0,40,0.00,,,0.00,weatherlink.com 1.10,2013-03-23 01:46:00,
2013-03-22 22:01:00,36.3,17.0,30.04,SSE,158,0.0,1.0,46,0.00,,,0.00,weatherlink.com 1.10,2013-03-23 02:01:00,
2013-03-22 22:16:00,36.3,19.0,30.04,ESE,108,0.0,2.0,50,0.00,,,0.00,weatherlink.com 1.10,2013-03-23 02:16:00,
2013-03-22 22:31:00,37.2,18.0,30.04,ESE,107,0.0,0.0,45,0.00,,,0.00,weatherlink.com 1.10,2013-03-23 02:31:00,
2013-03-22 22:46:00,36.6,18.0,30.05,NW,321,0.0,0.0,47,0.00,,,0.00,weatherlink.com 1.10,2013-03-23 02:46:00,
2013-03-22 23:01:00,36.1,17.0,30.05,NNW,336,1.0,2.0,47,0.00,,,0.00,weatherlink.com 1.10,2013-03-23 03:01:00,
2013-03-22 23:16:00,37.9,18.0,30.05,North,6,3.0,4.0,44,0.00,,,0.00,weatherlink.com 1.10,2013-03-23 03:16:00,
2013-03-22 23:31:00,38.5,18.0,30.05,NE,37,3.0,4.0,44,0.00,,,0.00,weatherlink.com 1.10,2013-03-23 03:31:00,
2013-03-22 23:46:00,38.3,18.0,30.05,NE,38,4.0,4.0,44,0.00,,,0.00,weatherlink.com 1.10,2013-03-23 03:46:00,